Beulah, New Mexico
Current Conditions -  °F | °C
As of 12:53 PM on Thursday 29 Jan 2015 (Local Time) from KLVS Reporting Station
Overcast Overcast  
Wind Chill: 32°   Ceiling: 5000
Heat Index: 39°   Visibility: 10mi
Dew Point: 24°   Wind: 10mph
Humidity: 55%   Direction: 40°NE
Pressure: 30.49"   Gusts: NA
Location:  35.7797°N, 105.164°W
Report Text: KLVS 291953Z AUTO 04009KT 10SM OVC050 04/M04 A3049 RMK AO2 SLP302 T00391044
Loading
Personal Weather Stations






























Interactive Weather Map New forecast layout! Learn more

10-Day Weather Forecast

Advertisements
Track Severe Weather on mobile